createdAt,value
2022-12-23T00:01:26.664Z,100.00
2022-12-23T00:04:33.204Z,100.00
2022-12-23T00:07:39.369Z,100.00
2022-12-23T00:10:47.364Z,100.00
2022-12-23T00:14:16.342Z,100.00
2022-12-23T00:17:26.324Z,100.00
2022-12-23T00:20:34.317Z,100.00
2022-12-23T00:23:42.765Z,100.00
2022-12-23T00:26:50.184Z,100.00
2022-12-23T00:29:56.308Z,100.00
2022-12-23T00:33:02.429Z,100.00
2022-12-23T00:36:19.470Z,100.00
2022-12-23T00:39:43.552Z,100.00
2022-12-23T00:42:56.796Z,100.00
2022-12-23T00:46:03.210Z,100.00
2022-12-23T00:49:27.133Z,100.00
2022-12-23T00:52:33.283Z,100.00
2022-12-23T00:55:39.654Z,100.00
2022-12-23T00:58:47.709Z,100.00
2022-12-23T01:02:11.904Z,100.00
2022-12-23T01:05:41.469Z,100.00
2022-12-23T01:08:47.828Z,100.00
2022-12-23T01:11:54.011Z,100.00
2022-12-23T01:15:01.542Z,100.00
2022-12-23T01:18:08.030Z,100.00
2022-12-23T01:21:14.507Z,100.00
2022-12-23T01:24:20.842Z,100.00
2022-12-23T01:27:27.178Z,100.00
2022-12-23T01:30:35.260Z,100.00
2022-12-23T01:33:41.586Z,100.00
2022-12-23T01:36:47.759Z,100.00
2022-12-23T01:39:54.380Z,100.00
2022-12-23T01:43:00.951Z,100.00
2022-12-23T01:46:08.689Z,100.00
2022-12-23T01:49:15.575Z,100.00
2022-12-23T01:52:22.650Z,100.00
2022-12-23T01:55:32.071Z,100.00
2022-12-23T01:58:41.523Z,100.00
2022-12-23T02:02:06.585Z,100.00
2022-12-23T02:05:13.647Z,100.00
2022-12-23T02:08:37.888Z,100.00
2022-12-23T02:12:03.370Z,100.00
2022-12-23T02:15:43.201Z,100.00
2022-12-23T02:19:04.972Z,100.00
2022-12-23T02:22:32.772Z,100.00
2022-12-23T02:25:56.961Z,100.00
2022-12-23T02:29:30.299Z,100.00
2022-12-23T02:32:51.054Z,100.00
2022-12-23T02:36:06.239Z,100.00
2022-12-23T02:39:21.060Z,100.00
2022-12-23T02:42:34.867Z,100.00
2022-12-23T02:45:46.697Z,100.00
2022-12-23T02:49:00.431Z,100.00
2022-12-23T02:52:13.181Z,100.00
2022-12-23T02:55:23.569Z,100.00
2022-12-23T02:58:35.394Z,100.00
2022-12-23T03:01:44.313Z,100.00
2022-12-23T03:04:51.791Z,100.00
2022-12-23T03:08:02.785Z,100.00
2022-12-23T03:11:11.669Z,100.00
2022-12-23T03:14:34.912Z,100.00
2022-12-23T03:17:55.532Z,100.00
2022-12-23T03:21:10.172Z,100.00
2022-12-23T03:24:24.043Z,100.00
2022-12-23T03:27:37.593Z,100.00
2022-12-23T03:30:47.865Z,100.00
2022-12-23T03:33:59.916Z,100.00
2022-12-23T03:37:11.056Z,100.00
2022-12-23T03:40:21.236Z,100.00
2022-12-23T03:43:31.782Z,100.00
2022-12-23T03:46:41.821Z,100.00
2022-12-23T03:49:54.122Z,100.00
2022-12-23T03:53:05.596Z,100.00
2022-12-23T03:56:18.378Z,100.00
2022-12-23T03:59:28.408Z,100.00
2022-12-23T04:02:39.934Z,100.00
2022-12-23T04:05:53.690Z,100.00
2022-12-23T04:09:03.329Z,100.00
2022-12-23T04:12:09.784Z,100.00
2022-12-23T04:15:20.817Z,100.00
2022-12-23T04:18:26.969Z,100.00
2022-12-23T04:21:33.176Z,100.00
2022-12-23T04:24:41.156Z,100.00
2022-12-23T04:27:47.445Z,100.00
2022-12-23T04:30:53.608Z,100.00
2022-12-23T04:34:00.160Z,100.00
2022-12-23T04:37:06.291Z,100.00
2022-12-23T04:40:14.480Z,100.00
2022-12-23T04:43:20.731Z,100.00
2022-12-23T04:46:26.748Z,100.00
2022-12-23T04:49:32.962Z,100.00
2022-12-23T04:52:39.168Z,100.00
2022-12-23T04:55:51.419Z,100.00
2022-12-23T04:58:57.451Z,100.00
2022-12-23T05:02:03.398Z,100.00
2022-12-23T05:05:10.205Z,100.00
2022-12-23T05:08:16.299Z,100.00
2022-12-23T05:11:23.718Z,100.00
2022-12-23T05:14:29.953Z,100.00
2022-12-23T05:17:36.417Z,100.00
2022-12-23T05:20:42.533Z,100.00
2022-12-23T05:23:48.728Z,100.00
2022-12-23T05:27:00.155Z,100.00
2022-12-23T05:30:08.423Z,100.00
2022-12-23T05:33:15.527Z,100.00
2022-12-23T05:36:21.987Z,100.00
2022-12-23T05:39:28.438Z,100.00
2022-12-23T05:42:36.247Z,100.00
2022-12-23T05:45:42.957Z,100.00
2022-12-23T05:48:49.308Z,100.00
2022-12-23T05:51:55.815Z,100.00
2022-12-23T05:55:02.185Z,100.00
2022-12-23T05:58:10.009Z,100.00
2022-12-23T06:01:16.327Z,100.00
2022-12-23T06:04:22.563Z,100.00
2022-12-23T06:07:28.616Z,100.00
2022-12-23T06:10:34.701Z,100.00
2022-12-23T06:13:42.121Z,100.00
2022-12-23T06:16:48.326Z,100.00
2022-12-23T06:19:54.274Z,100.00
2022-12-23T06:23:00.341Z,100.00
2022-12-23T06:26:07.057Z,100.00
2022-12-23T06:29:15.068Z,100.00
2022-12-23T06:32:21.297Z,100.00
2022-12-23T06:35:27.685Z,100.00
2022-12-23T06:38:33.828Z,100.00
2022-12-23T06:41:39.899Z,100.00
2022-12-23T06:44:47.420Z,100.00
2022-12-23T06:47:53.355Z,100.00
2022-12-23T06:50:59.537Z,100.00
2022-12-23T06:54:05.827Z,100.00
2022-12-23T06:57:11.999Z,100.00
2022-12-23T07:00:20.210Z,100.00
2022-12-23T07:03:26.325Z,100.00
2022-12-23T07:06:33.069Z,100.00
2022-12-23T07:09:39.263Z,100.00
2022-12-23T07:12:50.542Z,100.00
2022-12-23T07:15:58.106Z,100.00
2022-12-23T07:19:04.478Z,100.00
2022-12-23T07:22:10.953Z,100.00
2022-12-23T07:25:17.028Z,100.00
2022-12-23T07:28:23.332Z,100.00
2022-12-23T07:31:30.933Z,100.00
2022-12-23T07:34:37.347Z,100.00
2022-12-23T07:37:43.828Z,100.00
2022-12-23T07:40:50.359Z,100.00
2022-12-23T07:43:56.628Z,100.00
2022-12-23T07:47:04.619Z,100.00
2022-12-23T07:50:11.624Z,100.00
2022-12-23T07:53:17.914Z,100.00
2022-12-23T07:56:24.564Z,100.00
2022-12-23T07:59:30.980Z,100.00
2022-12-23T08:02:38.696Z,100.00
2022-12-23T08:05:45.022Z,97.33
2022-12-23T08:08:50.932Z,98.76
2022-12-23T08:11:56.993Z,98.04
2022-12-23T08:15:03.172Z,98.72
2022-12-23T08:18:10.573Z,97.03
2022-12-23T08:21:19.154Z,96.56
2022-12-23T08:24:25.570Z,95.68
2022-12-23T08:27:31.775Z,94.38
2022-12-23T08:30:37.899Z,92.53
2022-12-23T08:33:48.064Z,93.38
2022-12-23T08:36:54.170Z,91.09
2022-12-23T08:40:00.306Z,91.62
2022-12-23T08:43:06.651Z,91.77
2022-12-23T08:46:13.262Z,88.13
2022-12-23T08:49:21.503Z,84.36
2022-12-23T08:52:28.110Z,82.88
2022-12-23T08:55:39.326Z,81.12
2022-12-23T08:58:47.131Z,82.73
2022-12-23T09:01:53.731Z,80.04
2022-12-23T09:05:01.475Z,78.59
2022-12-23T09:08:07.732Z,75.78
2022-12-23T09:11:16.295Z,74.08
2022-12-23T09:14:22.735Z,70.64
2022-12-23T09:17:28.823Z,66.21
2022-12-23T09:20:36.957Z,72.06
2022-12-23T09:23:43.273Z,78.02
2022-12-23T09:26:49.688Z,75.32
2022-12-23T09:29:56.259Z,73.23
2022-12-23T09:33:02.835Z,75.12
2022-12-23T09:36:10.702Z,70.16
2022-12-23T09:39:17.516Z,71.50
2022-12-23T09:42:42.128Z,68.21
2022-12-23T09:46:00.672Z,65.50
2022-12-23T09:49:13.382Z,64.44
2022-12-23T09:52:28.859Z,63.14
2022-12-23T09:55:47.431Z,62.49
2022-12-23T09:59:04.651Z,65.81
2022-12-23T10:02:23.184Z,63.76
2022-12-23T10:05:40.873Z,62.80
2022-12-23T10:08:50.159Z,63.17
2022-12-23T10:11:57.309Z,62.82
2022-12-23T10:15:08.771Z,61.34
2022-12-23T10:18:21.880Z,60.02
2022-12-23T10:21:33.080Z,59.40
2022-12-23T10:24:43.422Z,59.48
2022-12-23T10:27:49.490Z,60.47
2022-12-23T10:34:47.755Z,61.52
2022-12-23T10:38:01.332Z,61.28
2022-12-23T10:41:19.964Z,61.43
2022-12-23T10:45:04.514Z,64.47
2022-12-23T10:48:26.166Z,64.47
2022-12-23T10:51:39.575Z,68.93
2022-12-23T10:54:48.274Z,69.27
2022-12-23T10:58:09.256Z,70.05
2022-12-23T11:01:26.071Z,70.83
2022-12-23T11:04:37.027Z,73.10
2022-12-23T11:07:46.185Z,75.14
2022-12-23T11:10:53.887Z,74.33
2022-12-23T11:14:01.758Z,73.70
2022-12-23T11:17:20.557Z,73.74
2022-12-23T11:20:26.624Z,72.80
2022-12-23T11:23:36.705Z,72.51
2022-12-23T11:26:44.442Z,71.42
2022-12-23T11:29:55.721Z,70.64
2022-12-23T11:33:02.083Z,71.54
2022-12-23T11:36:16.200Z,70.66
2022-12-23T11:39:28.648Z,71.27
2022-12-23T11:42:36.602Z,70.60
2022-12-23T11:45:45.834Z,71.35
2022-12-23T11:49:06.964Z,70.91
2022-12-23T11:52:18.418Z,71.68
2022-12-23T11:55:26.963Z,72.71
2022-12-23T11:58:44.096Z,73.15
2022-12-23T12:01:52.515Z,72.92
2022-12-23T12:05:04.984Z,73.01
2022-12-23T12:08:16.245Z,73.43
2022-12-23T12:11:30.242Z,73.23
2022-12-23T12:14:44.856Z,72.98
2022-12-23T12:17:54.655Z,73.21
2022-12-23T12:21:05.971Z,73.06
2022-12-23T12:24:23.575Z,72.42
2022-12-23T12:27:37.187Z,73.02
2022-12-23T12:30:51.875Z,72.30
2022-12-23T12:34:07.493Z,71.52
2022-12-23T12:37:24.113Z,71.35
2022-12-23T12:40:39.009Z,71.10
2022-12-23T12:43:52.982Z,70.01
2022-12-23T12:47:27.876Z,71.20
2022-12-23T12:50:46.775Z,69.69
2022-12-23T12:54:05.891Z,68.77
2022-12-23T12:57:17.682Z,69.17
2022-12-23T13:00:25.291Z,68.74
2022-12-23T13:04:05.136Z,68.13
2022-12-23T13:07:25.511Z,67.72
2022-12-23T13:10:44.480Z,65.74
2022-12-23T13:13:57.471Z,66.72
2022-12-23T13:17:09.734Z,66.00
2022-12-23T13:20:31.289Z,67.20
2022-12-23T13:23:47.338Z,64.38
2022-12-23T13:27:05.216Z,67.13
2022-12-23T13:30:15.334Z,67.09
2022-12-23T13:33:30.177Z,65.56
2022-12-23T13:36:50.441Z,68.53
2022-12-23T13:40:09.549Z,69.70
2022-12-23T13:43:18.293Z,71.85
2022-12-23T13:46:37.338Z,73.46
2022-12-23T13:49:57.091Z,75.50
2022-12-23T13:53:18.651Z,78.64
2022-12-23T13:56:31.121Z,79.50
2022-12-23T13:59:40.967Z,79.99
2022-12-23T14:02:53.220Z,81.85
2022-12-23T14:05:59.595Z,83.74
2022-12-23T14:09:05.803Z,84.28
2022-12-23T14:12:27.664Z,86.05
2022-12-23T14:15:53.264Z,88.24
2022-12-23T14:19:33.218Z,88.34
2022-12-23T14:22:54.898Z,89.69
2022-12-23T14:26:27.343Z,92.27
2022-12-23T14:29:47.312Z,92.86
2022-12-23T14:32:58.475Z,95.06
2022-12-23T14:36:25.014Z,97.10
2022-12-23T14:39:33.730Z,99.86
2022-12-23T14:42:43.704Z,100.00
2022-12-23T14:45:53.077Z,100.00
2022-12-23T14:49:40.867Z,100.00
2022-12-23T14:52:50.681Z,100.00
2022-12-23T14:56:23.301Z,100.00
2022-12-23T14:59:40.142Z,100.00
2022-12-23T15:02:48.169Z,100.00
2022-12-23T15:06:07.470Z,100.00
2022-12-23T15:09:23.755Z,100.00
2022-12-23T15:12:34.129Z,100.00
2022-12-23T15:15:57.530Z,100.00
2022-12-23T15:19:23.754Z,100.00
2022-12-23T15:22:32.899Z,100.00
2022-12-23T15:25:43.356Z,100.00
2022-12-23T15:28:49.726Z,100.00
2022-12-23T15:31:58.811Z,100.00
2022-12-23T15:35:08.072Z,100.00
2022-12-23T15:38:17.391Z,100.00
2022-12-23T15:41:23.851Z,100.00
2022-12-23T15:44:37.839Z,100.00
2022-12-23T15:47:46.006Z,100.00
2022-12-23T15:50:57.724Z,100.00
2022-12-23T15:54:08.236Z,100.00
2022-12-23T15:57:19.433Z,100.00
2022-12-23T16:00:28.573Z,100.00
2022-12-23T16:03:37.790Z,100.00
2022-12-23T16:06:51.109Z,100.00
2022-12-23T16:09:57.471Z,100.00
2022-12-23T16:13:03.952Z,100.00
2022-12-23T16:16:21.501Z,100.00
2022-12-23T16:19:45.598Z,100.00
2022-12-23T16:22:54.193Z,100.00
2022-12-23T16:26:02.769Z,100.00
2022-12-23T16:29:11.601Z,100.00
2022-12-23T16:32:20.268Z,100.00
2022-12-23T16:35:34.406Z,100.00
2022-12-23T16:38:41.834Z,100.00
2022-12-23T16:41:48.237Z,100.00
2022-12-23T16:44:54.480Z,100.00
2022-12-23T16:48:01.447Z,100.00
2022-12-23T16:51:14.028Z,100.00
2022-12-23T16:54:22.146Z,100.00
2022-12-23T16:57:28.367Z,100.00
2022-12-23T17:00:35.044Z,100.00
2022-12-23T17:03:41.072Z,100.00
2022-12-23T17:06:47.731Z,100.00
2022-12-23T17:09:55.616Z,100.00
2022-12-23T17:13:01.668Z,100.00
2022-12-23T17:16:09.522Z,100.00
2022-12-23T17:19:27.168Z,100.00
2022-12-23T17:22:37.146Z,100.00
2022-12-23T17:25:45.037Z,100.00
2022-12-23T17:28:51.220Z,100.00
2022-12-23T17:31:57.540Z,100.00
2022-12-23T17:35:03.582Z,100.00
2022-12-23T17:38:11.894Z,100.00
2022-12-23T17:41:26.248Z,100.00
2022-12-23T17:44:32.266Z,100.00
2022-12-23T17:47:38.153Z,100.00
2022-12-23T17:50:45.447Z,100.00
2022-12-23T17:53:57.620Z,100.00
2022-12-23T17:57:17.816Z,100.00
2022-12-23T18:00:31.964Z,100.00
2022-12-23T18:03:40.108Z,100.00
2022-12-23T18:06:46.272Z,100.00
2022-12-23T18:09:52.497Z,100.00
2022-12-23T18:13:03.034Z,100.00
2022-12-23T18:16:12.456Z,100.00
2022-12-23T18:19:21.879Z,100.00
2022-12-23T18:22:28.502Z,100.00
2022-12-23T18:25:34.720Z,100.00
2022-12-23T18:28:42.519Z,100.00
2022-12-23T18:31:52.121Z,100.00
2022-12-23T18:34:58.747Z,100.00
2022-12-23T18:38:05.192Z,100.00
2022-12-23T18:41:13.848Z,100.00
2022-12-23T18:44:22.362Z,100.00
2022-12-23T18:47:28.774Z,100.00
2022-12-23T18:50:36.231Z,100.00
2022-12-23T18:53:43.711Z,100.00
2022-12-23T18:56:50.104Z,100.00
2022-12-23T18:59:58.140Z,100.00
2022-12-23T19:03:04.574Z,100.00
2022-12-23T19:06:13.602Z,100.00
2022-12-23T19:09:22.268Z,100.00
2022-12-23T19:12:28.737Z,100.00
2022-12-23T19:15:36.555Z,100.00
2022-12-23T19:18:43.075Z,100.00
2022-12-23T19:21:49.372Z,100.00
2022-12-23T19:25:05.169Z,100.00
2022-12-23T19:28:13.245Z,100.00
2022-12-23T19:31:20.788Z,100.00
2022-12-23T19:34:27.208Z,100.00
2022-12-23T19:37:33.563Z,100.00
2022-12-23T19:40:40.092Z,100.00
2022-12-23T19:43:47.727Z,100.00
2022-12-23T19:46:55.448Z,100.00
2022-12-23T19:50:01.855Z,100.00
2022-12-23T19:53:08.212Z,100.00
2022-12-23T19:56:17.266Z,100.00
2022-12-23T19:59:23.364Z,100.00
2022-12-23T20:02:30.960Z,100.00
2022-12-23T20:05:37.228Z,100.00
2022-12-23T20:08:44.057Z,100.00
2022-12-23T20:11:50.607Z,100.00
2022-12-23T20:14:57.167Z,100.00
2022-12-23T20:18:05.132Z,100.00
2022-12-23T20:21:12.053Z,100.00
2022-12-23T20:24:18.582Z,100.00
2022-12-23T20:27:28.107Z,100.00
2022-12-23T20:30:35.012Z,100.00
2022-12-23T20:33:43.509Z,100.00
2022-12-23T20:36:49.702Z,100.00
2022-12-23T20:39:56.120Z,100.00
2022-12-23T20:43:03.548Z,100.00
2022-12-23T20:46:12.282Z,100.00
2022-12-23T20:49:19.956Z,100.00
2022-12-23T20:52:26.417Z,100.00
2022-12-23T20:55:33.812Z,100.00
2022-12-23T20:58:59.597Z,100.00
2022-12-23T21:02:06.334Z,100.00
2022-12-23T21:05:14.214Z,100.00
2022-12-23T21:08:20.557Z,100.00
2022-12-23T21:11:29.845Z,100.00
2022-12-23T21:14:36.233Z,100.00
2022-12-23T21:17:42.668Z,100.00
2022-12-23T21:20:50.709Z,100.00
2022-12-23T21:24:00.182Z,100.00
2022-12-23T21:27:06.668Z,100.00
2022-12-23T21:30:13.701Z,100.00
2022-12-23T21:33:20.116Z,100.00
2022-12-23T21:36:31.182Z,100.00
2022-12-23T21:39:37.647Z,100.00
2022-12-23T21:42:43.856Z,100.00
2022-12-23T21:45:58.123Z,100.00
2022-12-23T21:49:04.575Z,100.00
2022-12-23T21:52:12.042Z,100.00
2022-12-23T21:55:18.478Z,100.00
2022-12-23T21:58:24.557Z,100.00
2022-12-23T22:01:31.036Z,100.00
2022-12-23T22:04:38.032Z,100.00
2022-12-23T22:07:45.994Z,100.00
2022-12-23T22:10:52.364Z,100.00
2022-12-23T22:13:59.956Z,100.00
2022-12-23T22:17:06.237Z,100.00
2022-12-23T22:20:12.855Z,100.00
2022-12-23T22:23:20.803Z,100.00
2022-12-23T22:26:28.720Z,100.00
2022-12-23T22:29:34.983Z,100.00
2022-12-23T22:32:42.714Z,100.00
2022-12-23T22:35:55.843Z,100.00
2022-12-23T22:39:04.298Z,100.00
2022-12-23T22:42:10.471Z,100.00
2022-12-23T22:45:16.889Z,100.00
2022-12-23T22:48:23.180Z,100.00
2022-12-23T22:51:31.743Z,100.00
2022-12-23T22:54:39.467Z,100.00
2022-12-23T22:57:45.848Z,100.00
2022-12-23T23:00:52.072Z,100.00
2022-12-23T23:04:00.791Z,100.00
2022-12-23T23:07:08.315Z,100.00
2022-12-23T23:10:16.850Z,100.00
2022-12-23T23:13:22.975Z,100.00
2022-12-23T23:16:29.094Z,100.00
2022-12-23T23:19:35.333Z,100.00
2022-12-23T23:22:41.720Z,100.00
2022-12-23T23:25:49.977Z,100.00
2022-12-23T23:28:57.569Z,100.00
2022-12-23T23:32:05.108Z,100.00
2022-12-23T23:35:11.428Z,100.00
2022-12-23T23:38:17.977Z,100.00
2022-12-23T23:41:25.781Z,100.00
2022-12-23T23:44:32.118Z,100.00
2022-12-23T23:47:38.703Z,100.00
2022-12-23T23:50:45.463Z,100.00
2022-12-23T23:53:52.083Z,100.00
2022-12-23T23:56:59.660Z,100.00
